createdAt,value
2018-09-06T08:53:52.099Z,100271
2018-09-06T08:54:50.916Z,100273
2018-09-06T08:56:05.012Z,100272
2018-09-06T08:56:58.145Z,100268
2018-09-06T08:57:51.620Z,100268
2018-09-06T08:58:49.463Z,100266
2018-09-06T08:59:51.998Z,100263
2018-09-06T09:00:51.119Z,100262
2018-09-06T09:01:50.797Z,100256
2018-09-06T09:03:08.334Z,100256
2018-09-06T09:14:42.275Z,100253
2018-09-06T09:16:20.149Z,1002
2018-09-06T09:17:18.372Z,1002
2018-09-06T09:18:19.323Z,1002
2018-09-06T09:19:19.504Z,1002
2018-09-06T09:21:43.877Z,10024
2018-09-06T09:23:24.644Z,1002
2018-09-06T09:25:57.136Z,1002
2018-09-06T09:26:55.591Z,1002
2018-09-06T09:27:53.343Z,1002
2018-09-06T09:29:01.968Z,1002
2018-09-06T09:29:56.904Z,1002
2018-09-06T09:31:01.930Z,1002
2018-09-06T09:31:56.110Z,1002
2018-09-06T09:33:04.013Z,1002
2018-09-06T09:33:55.156Z,1002
2018-09-06T09:34:55.591Z,1002
2018-09-06T09:35:55.899Z,1002
2018-09-06T09:37:02.469Z,1002
2018-09-06T09:38:04.038Z,1002
2018-09-06T09:39:23.018Z,1002
2018-09-06T09:39:58.824Z,1002
2018-09-06T09:40:56.095Z,1002
2018-09-06T09:41:56.323Z,1002
2018-09-06T09:42:57.088Z,1002
2018-09-06T09:43:57.769Z,1002
2018-09-06T09:44:56.055Z,1002
2018-09-06T09:47:56.596Z,1002
2018-09-06T09:49:12.570Z,1002
2018-09-06T09:49:57.463Z,1002
2018-09-06T09:50:57.159Z,1002
2018-09-06T09:51:56.385Z,1002
2018-09-06T09:52:55.256Z,1002
2018-09-06T09:53:57.105Z,1002
2018-09-06T09:55:00.085Z,1002
2018-09-06T09:55:55.688Z,1002
2018-09-06T09:56:58.534Z,1002
2018-09-06T09:57:56.481Z,1002
2018-09-06T09:58:59.865Z,1002
2018-09-06T09:59:57.645Z,1002
2018-09-06T10:01:00.040Z,1002
2018-09-06T10:01:56.342Z,1002
2018-09-06T10:02:59.933Z,1002
2018-09-06T10:03:59.079Z,1002
2018-09-06T10:05:00.590Z,1002
2018-09-06T10:05:58.405Z,1002
2018-09-06T10:06:59.851Z,1002
2018-09-06T10:08:05.476Z,1002
2018-09-06T10:08:58.533Z,1002
2018-09-06T10:09:59.823Z,1002
2018-09-06T10:10:58.352Z,1002
2018-09-06T10:12:00.697Z,1002
2018-09-06T10:12:57.811Z,1002
2018-09-06T10:13:58.507Z,1002
2018-09-06T10:14:59.596Z,1002
2018-09-06T10:16:00.028Z,1002
2018-09-06T10:16:59.716Z,1002
2018-09-06T10:17:58.337Z,1002
2018-09-06T10:19:14.400Z,1002
2018-09-06T10:19:59.569Z,1002
2018-09-06T10:20:58.654Z,1002
2018-09-06T10:22:01.041Z,1002
2018-09-06T10:23:00.500Z,1002
2018-09-06T10:24:00.618Z,1002
2018-09-06T10:25:01.566Z,1002
2018-09-06T10:25:59.879Z,1002
2018-09-06T10:27:02.067Z,1002
2018-09-06T10:28:00.101Z,1002
2018-09-06T10:29:00.353Z,1002
2018-09-06T10:30:07.230Z,1002
2018-09-06T10:31:01.732Z,1002
2018-09-06T10:32:00.547Z,1002
2018-09-06T10:33:06.459Z,1002
2018-09-06T10:33:59.017Z,1002
2018-09-06T10:35:01.759Z,1002
2018-09-06T10:35:58.632Z,1002
2018-09-06T10:36:58.590Z,1002
2018-09-06T10:37:58.536Z,1002
2018-09-06T10:38:58.314Z,1002
2018-09-06T10:39:58.831Z,1002
2018-09-06T10:40:58.469Z,1002
2018-09-06T10:41:58.788Z,1002
2018-09-06T10:42:58.616Z,1002
2018-09-06T10:43:58.752Z,1002
2018-09-06T10:44:59.490Z,1002
2018-09-06T10:46:00.436Z,1002
2018-09-06T10:47:03.999Z,1002
2018-09-06T10:48:00.927Z,1002
2018-09-06T10:49:02.157Z,1002
2018-09-06T10:50:00.977Z,1002
2018-09-06T10:51:01.489Z,1002
2018-09-06T10:52:01.572Z,1002
2018-09-06T10:53:01.758Z,1002
2018-09-06T10:54:01.573Z,1002
2018-09-06T10:55:02.287Z,1002
2018-09-06T10:56:02.344Z,1002
2018-09-06T10:57:07.910Z,1002
2018-09-06T10:58:02.803Z,1001
2018-09-06T12:44:01.874Z,1001
2018-09-06T12:45:00.915Z,1001
2018-09-06T12:46:00.628Z,1001
2018-09-06T12:47:00.855Z,1001
2018-09-06T12:48:04.222Z,1001
2018-09-06T12:48:59.947Z,1001
2018-09-06T12:50:01.636Z,1001
2018-09-06T12:51:01.569Z,1001
2018-09-06T12:52:01.687Z,1001
2018-09-06T12:53:02.050Z,1001
2018-09-06T12:53:59.941Z,1001
2018-09-06T12:55:27.100Z,1000
2018-09-06T12:56:00.549Z,1000
2018-09-06T12:57:03.383Z,1000
2018-09-06T12:58:01.513Z,1000
2018-09-06T12:59:03.790Z,1000
2018-09-06T13:00:00.871Z,1000
2018-09-06T13:01:01.315Z,1000
2018-09-06T13:02:00.428Z,1000
2018-09-06T13:03:01.272Z,1000
2018-09-06T13:04:01.550Z,1000
2018-09-06T13:05:03.236Z,1000
2018-09-06T13:06:01.507Z,1000
2018-09-06T13:07:02.720Z,1000
2018-09-06T13:08:01.903Z,1000
2018-09-06T13:09:01.631Z,1000
2018-09-06T13:10:00.757Z,1000
2018-09-06T13:11:01.599Z,1001
2018-09-06T13:12:02.623Z,1001
2018-09-06T13:13:03.793Z,1001
2018-09-06T13:14:02.615Z,1001
2018-09-06T13:15:01.995Z,1001
2018-09-06T13:16:02.072Z,1001
2018-09-06T13:17:06.301Z,1001
2018-09-06T13:18:03.146Z,1001
2018-09-06T13:19:02.901Z,1001
2018-09-06T13:20:01.699Z,1001
2018-09-06T13:21:03.710Z,1001
2018-09-06T13:22:20.868Z,1000
2018-09-06T13:23:02.690Z,1000
2018-09-06T13:24:04.190Z,1000
2018-09-06T13:25:02.623Z,1000
2018-09-06T13:26:02.599Z,1000
2018-09-06T13:27:04.120Z,1000
2018-09-06T13:28:03.330Z,1000
2018-09-06T13:29:02.694Z,1000
2018-09-06T13:30:03.304Z,1000
2018-09-06T13:31:02.920Z,1000
2018-09-06T13:32:10.592Z,1000
2018-09-06T13:33:05.186Z,1000
2018-09-06T13:34:03.823Z,1000
2018-09-06T13:35:03.654Z,1000
2018-09-06T13:36:02.318Z,1000
2018-09-06T13:37:04.824Z,1000
2018-09-06T13:38:10.340Z,1000
2018-09-06T13:39:01.396Z,1000
2018-09-06T13:40:04.761Z,1000
2018-09-06T13:41:09.972Z,1000
2018-09-06T13:42:04.501Z,1000
2018-09-06T13:43:03.313Z,1000
2018-09-06T13:44:03.158Z,1000
2018-09-06T13:45:27.477Z,1000
2018-09-06T13:46:04.767Z,1000
2018-09-06T13:47:28.586Z,1000
2018-09-06T13:48:03.484Z,1000
2018-09-06T13:49:03.668Z,1000
2018-09-06T13:50:04.593Z,1000
2018-09-06T13:51:03.436Z,1000
2018-09-06T13:52:03.724Z,1000
2018-09-06T13:53:03.542Z,1000
